Time;durP1;ratioP1;P1;durP2;ratioP2;P2;SDS_P1;SDS_P2;PMS_P1;PMS_P2;Temp;Humidity;BMP_temperature;BMP_pressure;BME280_temperature;BME280_humidity;BME280_pressure;Samples;Min_cycle;Max_cycle;Signal;HPM_P1;HPM_P2
2024/01/13 00:01:06;;;;;;;14.70;8.20;;;;;;;-0.08;100.00;101140.77;105328;1257;73852;-55
2024/01/13 00:03:54;;;;;;;14.20;8.70;;;;;;;-0.08;100.00;101144.38;105297;1257;81086;-55
2024/01/13 00:06:23;;;;;;;12.00;7.50;;;;;;;-0.08;100.00;101143.52;105213;1259;71993;-56
2024/01/13 00:08:51;;;;;;;14.30;8.70;;;;;;;-0.09;100.00;101142.80;105290;1258;69113;-56
2024/01/13 00:11:20;;;;;;;14.80;9.00;;;;;;;-0.09;100.00;101142.64;105332;1259;69196;-55
2024/01/13 00:13:48;;;;;;;17.30;8.70;;;;;;;-0.09;100.00;101135.58;105305;1257;73557;-56
2024/01/13 00:16:16;;;;;;;13.60;8.00;;;;;;;-0.11;100.00;101136.76;105283;1259;82566;-56
2024/01/13 00:18:45;;;;;;;16.80;8.60;;;;;;;-0.11;100.00;101131.07;105309;1257;72268;-57
2024/01/13 00:21:13;;;;;;;11.90;8.10;;;;;;;-0.12;100.00;101131.91;105371;1259;69182;-56
2024/01/13 00:23:41;;;;;;;13.60;8.70;;;;;;;-0.14;100.00;101119.86;105261;1258;69113;-56
2024/01/13 00:26:10;;;;;;;16.70;8.80;;;;;;;-0.15;100.00;101115.73;105254;1257;73295;-55
2024/01/13 00:28:38;;;;;;;13.20;8.00;;;;;;;-0.16;100.00;101111.25;105349;1259;81631;-58
2024/01/13 00:31:06;;;;;;;15.30;8.70;;;;;;;-0.16;100.00;101111.94;105286;1260;70453;-57
2024/01/13 00:33:36;;;;;;;15.90;8.60;;;;;;;-0.16;100.00;101103.02;105403;1259;69188;-58
2024/01/13 00:36:05;;;;;;;17.20;9.00;;;;;;;-0.16;100.00;101096.46;105371;1257;69170;-56
2024/01/13 00:38:34;;;;;;;17.70;9.00;;;;;;;-0.17;100.00;101093.69;105362;1259;73956;-56
2024/01/13 00:41:05;;;;;;;15.20;8.90;;;;;;;-0.17;100.00;101094.04;105225;1260;81445;-56
2024/01/13 00:43:37;;;;;;;15.20;8.10;;;;;;;-0.16;100.00;101090.45;105219;1257;70410;-55
2024/01/13 00:46:05;;;;;;;16.70;8.70;;;;;;;-0.15;100.00;101087.89;105275;1257;69126;-56
2024/01/13 00:48:35;;;;;;;15.10;9.10;;;;;;;-0.14;100.00;101088.45;105335;1257;69573;-56
2024/01/13 00:51:11;;;;;;;19.50;9.30;;;;;;;-0.12;100.00;101090.17;105226;1257;73911;-55
2024/01/13 00:53:42;;;;;;;15.40;8.80;;;;;;;-0.12;100.00;101095.85;105303;1259;81663;-56
2024/01/13 00:56:11;;;;;;;16.20;9.50;;;;;;;-0.10;100.00;101093.30;105281;1258;73842;-55
2024/01/13 00:58:40;;;;;;;17.10;8.90;;;;;;;-0.09;100.00;101096.42;105321;1257;69237;-55
2024/01/13 01:01:13;;;;;;;18.60;9.20;;;;;;;-0.08;100.00;101087.00;105349;1259;69202;-55
2024/01/13 01:03:45;;;;;;;14.60;8.80;;;;;;;-0.06;100.00;101088.39;105332;1257;73839;-55
2024/01/13 01:06:16;;;;;;;15.50;8.30;;;;;;;-0.06;100.00;101077.05;105304;1259;81632;-55
2024/01/13 01:08:45;;;;;;;19.60;8.70;;;;;;;-0.05;100.00;101076.05;105327;1259;70680;-55
2024/01/13 01:11:13;;;;;;;14.20;8.00;;;;;;;-0.03;100.00;101072.49;105305;1255;69198;-56
2024/01/13 01:13:42;;;;;;;15.30;8.90;;;;;;;-0.01;100.00;101068.05;105367;1258;69180;-55
2024/01/13 01:16:10;;;;;;;19.30;9.00;;;;;;;0.02;100.00;101067.05;105318;1257;73544;-56
2024/01/13 01:18:39;;;;;;;17.20;8.50;;;;;;;0.02;100.00;101065.50;105321;1260;81663;-55
2024/01/13 01:21:14;;;;;;;18.60;9.60;;;;;;;0.04;100.00;101063.30;105342;1257;71685;-56
2024/01/13 01:23:47;;;;;;;16.70;8.70;;;;;;;0.03;100.00;101063.64;105291;1257;69128;-56
2024/01/13 01:26:16;;;;;;;15.20;9.20;;;;;;;0.04;100.00;101056.95;105319;1260;69179;-56
2024/01/13 01:28:44;;;;;;;19.10;8.80;;;;;;;0.04;100.00;101052.14;105363;1257;74836;-55
2024/01/13 01:31:12;;;;;;;15.00;8.60;;;;;;;0.05;100.00;101050.61;105288;1259;82855;-56
2024/01/13 01:33:41;;;;;;;14.20;8.40;;;;;;;0.06;100.00;101045.98;105269;1260;73454;-55
2024/01/13 01:36:09;;;;;;;16.90;9.00;;;;;;;0.07;100.00;101047.89;105350;1258;69125;-56
2024/01/13 01:38:38;;;;;;;18.80;9.10;;;;;;;0.08;100.00;101050.84;105317;1260;69209;-56
2024/01/13 01:41:14;;;;;;;15.10;9.10;;;;;;;0.10;100.00;101045.52;105289;1255;73923;-56
2024/01/13 01:43:44;;;;;;;17.70;9.10;;;;;;;0.10;100.00;101041.07;105268;1257;80402;-57
2024/01/13 01:46:14;;;;;;;17.60;8.40;;;;;;;0.10;100.00;101035.39;105198;1259;72425;-57
2024/01/13 01:48:43;;;;;;;18.10;8.70;;;;;;;0.10;100.00;101031.27;105292;1257;69167;-56
2024/01/13 01:51:14;;;;;;;;;;;;;;;0.10;100.00;101023.20;105291;1259;69240;-57
2024/01/13 01:53:44;;;;;;;16.00;8.90;;;;;;;0.09;100.00;101024.73;105340;1259;73872;-57
2024/01/13 01:56:14;;;;;;;18.10;8.90;;;;;;;0.09;100.00;101026.11;105255;1262;81416;-57
2024/01/13 01:58:43;;;;;;;;;;;;;;;0.09;100.00;101024.23;105364;1259;72074;-57
2024/01/13 02:01:12;;;;;;;16.60;8.60;;;;;;;0.10;100.00;101027.83;105303;1260;69212;-58
2024/01/13 02:03:40;;;;;;;16.20;8.90;;;;;;;0.10;100.00;101027.14;105394;1259;69222;-58
2024/01/13 02:06:10;;;;;;;18.50;9.10;;;;;;;0.09;100.00;101024.05;105269;1257;72568;-59
2024/01/13 02:08:40;;;;;;;16.40;9.00;;;;;;;0.10;100.00;101017.02;105373;1260;81812;-59
2024/01/13 02:11:10;;;;;;;14.80;9.10;;;;;;;0.11;100.00;101013.60;105349;1259;72200;-61
2024/01/13 02:13:41;;;;;;;18.20;9.40;;;;;;;0.12;100.00;101012.06;105335;1259;69124;-59
2024/01/13 02:16:10;;;;;;;15.00;8.90;;;;;;;0.13;100.00;101004.16;105339;1258;69177;-58
2024/01/13 02:18:39;;;;;;;15.50;8.90;;;;;;;0.12;100.00;100998.66;105368;1257;72133;-59
2024/01/13 02:21:12;;;;;;;16.80;8.40;;;;;;;0.13;100.00;100998.49;105365;1260;81855;-58
2024/01/13 02:23:43;;;;;;;16.80;9.00;;;;;;;0.14;100.00;100992.32;105367;1258;70590;-59
2024/01/13 02:26:11;;;;;;;20.30;9.70;;;;;;;0.15;100.00;100996.98;105398;1258;69234;-58
2024/01/13 02:28:40;;;;;;;18.10;9.10;;;;;;;0.15;100.00;100995.10;105306;1259;69195;-59
2024/01/13 02:31:16;;;;;;;14.10;8.30;;;;;;;0.16;100.00;100989.77;105304;1257;74260;-59
2024/01/13 02:33:50;;;;;;;14.30;8.30;;;;;;;0.16;100.00;100992.70;105340;1260;82182;-58
2024/01/13 02:36:42;;;;;;;19.30;8.40;;;;;;;0.17;100.00;100983.97;105283;1257;71563;-58
2024/01/13 02:39:10;;;;;;;15.00;9.10;;;;;;;0.18;100.00;100982.60;105216;1258;69782;-58
2024/01/13 02:41:38;;;;;;;15.40;9.60;;;;;;;0.18;100.00;100983.45;105207;1260;69176;-58
2024/01/13 02:44:07;;;;;;;15.90;8.70;;;;;;;0.19;100.00;100984.67;105107;1259;74119;-58
2024/01/13 02:46:35;;;;;;;17.40;8.20;;;;;;;0.20;100.00;100987.61;105126;1259;82553;-58
2024/01/13 02:49:05;;;;;;;14.50;7.70;;;;;;;0.22;100.00;100989.34;105152;1260;71755;-58
2024/01/13 02:51:33;;;;;;;13.40;7.10;;;;;;;0.22;100.00;100987.98;105147;1260;69074;-58
2024/01/13 02:54:02;;;;;;;14.90;8.20;;;;;;;0.23;100.00;100989.20;105123;1267;69122;-58
2024/01/13 02:56:31;;;;;;;15.80;7.60;;;;;;;0.24;100.00;100989.20;105202;1259;73797;-58
2024/01/13 02:58:59;;;;;;;18.00;8.10;;;;;;;0.24;100.00;100990.59;105174;1259;81751;-58
2024/01/13 03:01:30;;;;;;;16.70;8.40;;;;;;;0.24;100.00;100992.13;105119;1257;72413;-58
2024/01/13 03:03:59;;;;;;;15.20;8.10;;;;;;;0.24;100.00;100988.00;105148;1268;69147;-58
2024/01/13 03:06:27;;;;;;;15.40;8.00;;;;;;;0.24;100.00;100985.60;105251;1257;69167;-59
2024/01/13 03:08:56;;;;;;;17.30;7.90;;;;;;;0.24;100.00;100978.90;105350;1258;75047;-58
2024/01/13 03:11:24;;;;;;;18.50;7.60;;;;;;;0.25;100.00;100971.18;105277;1259;81565;-59
2024/01/13 03:13:55;;;;;;;11.90;7.00;;;;;;;0.26;100.00;100969.30;105307;1260;70638;-59
2024/01/13 03:16:25;;;;;;;14.80;7.30;;;;;;;0.26;100.00;100967.07;105310;1255;69047;-59
2024/01/13 03:18:54;;;;;;;15.90;7.30;;;;;;;0.27;100.00;100965.52;105301;1258;69204;-59
2024/01/13 03:21:22;;;;;;;14.20;7.50;;;;;;;0.28;100.00;100964.84;105243;1257;75089;-59
2024/01/13 03:24:26;;;;;;;14.30;7.30;;;;;;;0.28;100.00;100960.05;105277;1259;81659;-59
2024/01/13 03:26:54;;;;;;;15.30;7.60;;;;;;;0.28;100.00;100958.50;105214;1261;71882;-59
2024/01/13 03:29:22;;;;;;;13.50;7.30;;;;;;;0.29;100.00;100963.50;105251;1259;69130;-59
2024/01/13 03:31:51;;;;;;;16.20;6.60;;;;;;;0.29;100.00;100955.77;105393;1267;69170;-59
2024/01/13 03:34:19;;;;;;;13.10;6.80;;;;;;;0.29;100.00;100950.09;105318;1257;73643;-63
2024/01/13 03:36:47;;;;;;;18.80;7.40;;;;;;;0.29;100.00;100944.08;105222;1268;82756;-60
2024/01/13 03:39:15;;;;;;;13.80;7.70;;;;;;;0.29;100.00;100943.73;105230;1260;70555;-59
2024/01/13 03:41:43;;;;;;;17.30;7.60;;;;;;;0.29;100.00;100936.17;105320;1260;69185;-60
2024/01/13 03:44:12;;;;;;;18.90;7.80;;;;;;;0.30;100.00;100934.98;105351;1259;69122;-61
2024/01/13 03:46:40;;;;;;;13.70;6.90;;;;;;;0.30;100.00;100935.83;105377;1263;73392;-63
2024/01/13 03:49:08;;;;;;;16.20;8.20;;;;;;;0.31;100.00;100932.58;105411;1260;80072;-61
2024/01/13 03:51:37;;;;;;;11.30;6.70;;;;;;;0.31;100.00;100934.29;105215;1261;72138;-60
2024/01/13 03:54:05;;;;;;;14.70;7.40;;;;;;;0.31;100.00;100929.15;105372;1267;69226;-60
2024/01/13 03:56:33;;;;;;;13.00;7.60;;;;;;;0.31;100.00;100927.95;105352;1261;69227;-60
2024/01/13 03:59:01;;;;;;;19.40;7.80;;;;;;;0.31;100.00;100926.41;105333;1262;73718;-60
2024/01/13 04:01:30;;;;;;;16.30;7.70;;;;;;;0.32;100.00;100927.95;105360;1256;81936;-60
2024/01/13 04:03:58;;;;;;;19.60;7.40;;;;;;;0.32;100.00;100930.19;105343;1260;72760;-60
2024/01/13 04:06:27;;;;;;;14.20;7.00;;;;;;;0.32;100.00;100931.39;105344;1260;69125;-61
2024/01/13 04:08:55;;;;;;;13.50;6.60;;;;;;;0.34;100.00;100928.32;105336;1260;69173;-61
2024/01/13 04:11:24;;;;;;;16.80;7.40;;;;;;;0.34;100.00;100930.05;105337;1260;73693;-61
2024/01/13 04:13:52;;;;;;;12.90;6.60;;;;;;;0.35;100.00;100930.23;105333;1259;81742;-61
2024/01/13 04:16:20;;;;;;;15.70;8.10;;;;;;;0.36;100.00;100930.92;105335;1260;72395;-61
2024/01/13 04:18:48;;;;;;;18.20;8.90;;;;;;;0.36;100.00;100927.50;105289;1257;69176;-61
2024/01/13 04:21:16;;;;;;;13.40;7.70;;;;;;;0.36;100.00;100925.95;105294;1260;69234;-61
2024/01/13 04:23:51;;;;;;;17.80;8.30;;;;;;;0.36;100.00;100925.27;105219;1261;72045;-61
2024/01/13 04:26:21;;;;;;;13.10;6.80;;;;;;;0.36;100.00;100920.63;105352;1258;81119;-61
2024/01/13 04:28:49;;;;;;;14.20;7.00;;;;;;;0.37;100.00;100922.19;105308;1260;72951;-62
2024/01/13 04:31:18;;;;;;;13.90;6.70;;;;;;;0.38;100.00;100924.42;105143;1259;69074;-61
2024/01/13 04:33:46;;;;;;;14.60;7.60;;;;;;;0.38;100.00;100920.30;105235;1260;69122;-62
2024/01/13 04:36:15;;;;;;;15.20;7.60;;;;;;;0.38;100.00;100919.27;105277;1260;75682;-62
2024/01/13 04:38:44;;;;;;;10.70;6.30;;;;;;;0.38;100.00;100916.00;105284;1259;81827;-61
2024/01/13 04:41:13;;;;;;;12.50;6.90;;;;;;;0.39;100.00;100912.76;105328;1267;71694;-62
2024/01/13 04:43:42;;;;;;;13.60;6.90;;;;;;;0.39;100.00;100907.60;105227;1258;69130;-61
2024/01/13 04:46:10;;;;;;;11.00;6.40;;;;;;;0.38;100.00;100903.27;105371;1268;69217;-61
2024/01/13 04:48:39;;;;;;;13.00;6.80;;;;;;;0.37;100.00;100897.77;105242;1259;74066;-61
2024/01/13 04:51:09;;;;;;;13.50;6.70;;;;;;;0.37;100.00;100893.30;105346;1260;81426;-61
2024/01/13 04:53:37;;;;;;;13.40;6.40;;;;;;;0.36;100.00;100888.14;105188;1259;73520;-61
2024/01/13 04:56:06;;;;;;;13.50;6.30;;;;;;;0.36;100.00;100882.98;105160;1260;69125;-61
2024/01/13 04:58:34;;;;;;;11.90;6.20;;;;;;;0.36;100.00;100882.63;105275;1259;69256;-61
2024/01/13 05:01:02;;;;;;;9.80;6.40;;;;;;;0.35;100.00;100881.23;105136;1258;74181;-61
2024/01/13 05:03:31;;;;;;;12.10;6.80;;;;;;;0.35;100.00;100880.89;105227;1261;81986;-61
2024/01/13 05:06:01;;;;;;;11.60;6.10;;;;;;;0.33;100.00;100869.36;105434;1258;72383;-61
2024/01/13 05:08:29;;;;;;;10.70;6.50;;;;;;;0.32;100.00;100867.80;105349;1259;69106;-61
2024/01/13 05:10:58;;;;;;;13.90;6.60;;;;;;;0.30;100.00;100867.08;105220;1260;69273;-61
2024/01/13 05:13:26;;;;;;;13.50;7.60;;;;;;;0.29;100.00;100866.55;105286;1261;75784;-61
2024/01/13 05:15:54;;;;;;;10.10;5.90;;;;;;;0.26;100.00;100865.98;105400;1260;81562;-61
2024/01/13 05:18:22;;;;;;;12.20;6.50;;;;;;;0.24;100.00;100869.59;105288;1259;72131;-63
2024/01/13 05:20:50;;;;;;;9.60;5.40;;;;;;;0.22;100.00;100875.23;105378;1257;69144;-62
2024/01/13 05:23:19;;;;;;;11.10;6.30;;;;;;;0.21;100.00;100874.36;105374;1259;69122;-63
2024/01/13 05:25:47;;;;;;;11.40;6.00;;;;;;;0.22;100.00;100879.52;105341;1258;73973;-61
2024/01/13 05:28:15;;;;;;;8.90;5.50;;;;;;;0.22;100.00;100884.67;105345;1261;81393;-61
2024/01/13 05:30:43;;;;;;;10.90;6.10;;;;;;;0.22;100.00;100886.58;105322;1261;72001;-60
2024/01/13 05:33:12;;;;;;;12.90;6.50;;;;;;;0.23;100.00;100880.75;105363;1259;69105;-60
2024/01/13 05:35:41;;;;;;;10.40;5.80;;;;;;;0.22;100.00;100878.33;105394;1260;69150;-60
2024/01/13 05:38:09;;;;;;;10.90;5.30;;;;;;;0.23;100.00;100879.20;105373;1259;74277;-60
2024/01/13 05:40:41;;;;;;;9.80;5.40;;;;;;;0.23;100.00;100877.66;105381;1258;82618;-60
2024/01/13 05:43:10;;;;;;;9.50;6.00;;;;;;;0.24;100.00;100875.42;105357;1257;70770;-59
2024/01/13 05:45:38;;;;;;;11.60;5.70;;;;;;;0.24;100.00;100873.36;105386;1260;69210;-59
2024/01/13 05:48:06;;;;;;;12.60;6.40;;;;;;;0.24;100.00;100865.11;105357;1269;69122;-59
2024/01/13 05:50:35;;;;;;;10.30;5.50;;;;;;;0.26;100.00;100858.95;105387;1260;73811;-58
2024/01/13 05:53:03;;;;;;;10.00;5.80;;;;;;;0.27;100.00;100861.53;105352;1260;81572;-59
2024/01/13 05:55:31;;;;;;;9.60;5.70;;;;;;;0.28;100.00;100858.79;105357;1260;73866;-59
2024/01/13 05:58:00;;;;;;;9.20;5.40;;;;;;;0.29;100.00;100858.65;105296;1256;69093;-58
2024/01/13 06:00:28;;;;;;;8.30;5.80;;;;;;;0.29;100.00;100859.67;105362;1260;69284;-59
2024/01/13 06:02:57;;;;;;;10.20;6.40;;;;;;;0.27;100.00;100857.23;105302;1257;74811;-59
2024/01/13 06:05:26;;;;;;;8.60;6.00;;;;;;;0.27;100.00;100855.01;105261;1259;83649;-58
2024/01/13 06:07:55;;;;;;;10.30;5.90;;;;;;;0.26;100.00;100852.24;105364;1260;71567;-58
2024/01/13 06:10:23;;;;;;;9.30;5.40;;;;;;;0.26;100.00;100847.27;105263;1259;69157;-58
2024/01/13 06:12:51;;;;;;;8.90;6.00;;;;;;;0.27;100.00;100844.34;105312;1260;69190;-58
2024/01/13 06:15:19;;;;;;;10.00;5.70;;;;;;;0.25;100.00;100840.39;105322;1259;73735;-58
2024/01/13 06:17:48;;;;;;;7.20;4.80;;;;;;;0.25;100.00;100842.27;105308;1260;81530;-58
2024/01/13 06:20:17;;;;;;;8.60;5.20;;;;;;;0.25;100.00;100847.08;105401;1260;72227;-58
2024/01/13 06:22:46;;;;;;;9.90;5.40;;;;;;;0.25;100.00;100853.78;105344;1266;69282;-57
2024/01/13 06:25:14;;;;;;;9.40;5.40;;;;;;;0.25;100.00;100855.16;105407;1258;69722;-58
2024/01/13 06:27:42;;;;;;;9.30;4.80;;;;;;;0.24;100.00;100858.41;105341;1259;73922;-58
2024/01/13 06:30:12;;;;;;;6.50;4.50;;;;;;;0.23;100.00;100859.42;105356;1261;81654;-57
2024/01/13 06:32:41;;;;;;;8.30;5.50;;;;;;;0.22;100.00;100863.89;105372;1259;73088;-57
2024/01/13 06:35:09;;;;;;;8.20;5.20;;;;;;;0.21;100.00;100862.84;105346;1260;69232;-56
2024/01/13 06:37:38;;;;;;;11.90;6.50;;;;;;;0.20;100.00;100861.46;105347;1260;69153;-57
2024/01/13 06:40:08;;;;;;;12.60;6.60;;;;;;;0.19;100.00;100857.67;105397;1258;74936;-57
2024/01/13 06:42:36;;;;;;;9.70;6.40;;;;;;;0.18;100.00;100855.42;105354;1257;80648;-57
2024/01/13 06:45:05;;;;;;;11.20;7.00;;;;;;;0.18;100.00;100856.80;105297;1257;71723;-57
2024/01/13 06:47:33;;;;;;;8.90;6.10;;;;;;;0.17;100.00;100859.19;105427;1257;69165;-57
2024/01/13 06:50:03;;;;;;;16.50;8.70;;;;;;;0.18;100.00;100856.63;105311;1261;69195;-57
2024/01/13 06:52:31;;;;;;;14.00;7.40;;;;;;;0.19;100.00;100853.55;105436;1257;74866;-55
2024/01/13 06:55:00;;;;;;;10.70;7.20;;;;;;;0.20;100.00;100848.92;105404;1261;81957;-55
2024/01/13 06:57:28;;;;;;;10.00;6.00;;;;;;;0.21;100.00;100845.83;105589;1259;71954;-56
2024/01/13 06:59:56;;;;;;;8.80;6.40;;;;;;;0.21;100.00;100837.23;105260;1261;69147;-54
2024/01/13 07:02:25;;;;;;;9.60;6.30;;;;;;;0.21;100.00;100836.20;105384;1258;69141;-57
2024/01/13 07:04:53;;;;;;;8.50;5.70;;;;;;;0.21;100.00;100829.84;105498;1257;73610;-54
2024/01/13 07:07:21;;;;;;;9.40;5.90;;;;;;;0.22;100.00;100822.46;105270;1261;81730;-55
2024/01/13 07:09:53;;;;;;;6.70;4.90;;;;;;;0.23;100.00;100817.99;105303;1257;73157;-56
2024/01/13 07:12:21;;;;;;;7.80;5.30;;;;;;;0.24;100.00;100816.99;105351;1259;69206;-57
2024/01/13 07:14:50;;;;;;;7.50;5.40;;;;;;;0.26;100.00;100815.81;105381;1257;69180;-57
2024/01/13 07:17:18;;;;;;;9.30;5.70;;;;;;;0.29;100.00;100815.33;105340;1259;75241;-56
2024/01/13 07:19:46;;;;;;;7.60;5.00;;;;;;;0.30;100.00;100814.14;105336;1258;82401;-56
2024/01/13 07:22:14;;;;;;;6.90;4.70;;;;;;;0.31;100.00;100809.52;105336;1261;71659;-57
2024/01/13 07:24:43;;;;;;;8.10;5.70;;;;;;;0.32;100.00;100812.61;105321;1258;69327;-56
2024/01/13 07:27:12;;;;;;;7.30;5.00;;;;;;;0.34;100.00;100812.47;105422;1261;69221;-56
2024/01/13 07:29:40;;;;;;;7.10;4.80;;;;;;;0.36;100.00;100809.39;105392;1260;73770;-53
2024/01/13 07:32:19;;;;;;;7.20;5.30;;;;;;;0.37;100.00;100805.45;105345;1259;82651;-53
2024/01/13 07:34:47;;;;;;;7.30;4.90;;;;;;;0.38;100.00;100803.57;105349;1260;71539;-54
2024/01/13 07:37:16;;;;;;;7.10;4.70;;;;;;;0.39;100.00;100798.77;105297;1260;69109;-51
2024/01/13 07:39:44;;;;;;;6.40;4.20;;;;;;;0.40;100.00;100796.39;105475;1260;69064;-52
2024/01/13 07:42:12;;;;;;;6.90;4.40;;;;;;;0.42;100.00;100792.79;105207;1261;73382;-54
2024/01/13 07:44:44;;;;;;;6.90;4.20;;;;;;;0.45;100.00;100786.11;105310;1260;81924;-51
2024/01/13 07:47:12;;;;;;;6.40;4.50;;;;;;;0.47;100.00;100781.99;105335;1259;72205;-56
2024/01/13 07:49:40;;;;;;;6.80;4.70;;;;;;;0.50;100.00;100785.13;105499;1259;69276;-57
2024/01/13 07:52:09;;;;;;;6.20;4.50;;;;;;;0.53;100.00;100784.47;105358;1257;69234;-56
2024/01/13 07:54:37;;;;;;;5.00;3.50;;;;;;;0.56;100.00;100781.92;105393;1261;73489;-55
2024/01/13 07:57:06;;;;;;;5.70;3.90;;;;;;;0.58;100.00;100775.41;105350;1257;82544;-55
2024/01/13 07:59:34;;;;;;;5.10;3.50;;;;;;;0.60;100.00;100776.63;105414;1257;71757;-54
2024/01/13 08:02:03;;;;;;;3.80;3.10;;;;;;;0.61;100.00;100775.27;105340;1260;69096;-55
2024/01/13 08:04:31;;;;;;;6.50;4.30;;;;;;;0.62;100.00;100777.16;105437;1257;69071;-56
2024/01/13 08:07:00;;;;;;;4.90;3.20;;;;;;;0.64;100.00;100773.92;105362;1256;75901;-57
2024/01/13 08:09:29;;;;;;;5.00;3.80;;;;;;;0.65;100.00;100765.51;105537;1259;81799;-57
2024/01/13 08:11:58;;;;;;;5.00;3.60;;;;;;;0.68;100.00;100763.97;105303;1260;71601;-57
2024/01/13 08:14:26;;;;;;;5.50;3.60;;;;;;;0.69;100.00;100763.63;105483;1258;69202;-56
2024/01/13 08:16:55;;;;;;;5.10;3.30;;;;;;;0.70;100.00;100767.60;105522;1256;69192;-56
2024/01/13 08:19:23;;;;;;;4.50;3.50;;;;;;;0.71;100.00;100762.63;105463;1256;73293;-57
2024/01/13 08:21:52;;;;;;;4.50;3.20;;;;;;;0.71;100.00;100757.65;105565;1259;81730;-58
2024/01/13 08:24:20;;;;;;;4.90;3.20;;;;;;;0.72;100.00;100754.89;105383;1258;71765;-58
2024/01/13 08:26:49;;;;;;;4.00;2.90;;;;;;;0.71;100.00;100751.79;105391;1260;69189;-58
2024/01/13 08:29:18;;;;;;;4.20;3.30;;;;;;;0.71;100.00;100752.82;105546;1259;69234;-58
2024/01/13 08:31:49;;;;;;;5.00;3.20;;;;;;;0.72;100.00;100746.98;105480;1257;74635;-58
2024/01/13 08:34:17;;;;;;;4.20;3.30;;;;;;;0.72;100.00;100741.66;105331;1260;81636;-60
2024/01/13 08:36:46;;;;;;;3.80;2.50;;;;;;;0.72;100.00;100737.89;105372;1256;72862;-58
2024/01/13 08:39:14;;;;;;;4.30;3.00;;;;;;;0.72;100.00;100736.52;105433;1257;69180;-55
2024/01/13 08:41:43;;;;;;;4.60;3.30;;;;;;;0.73;100.00;100736.69;105384;1260;69218;-56
2024/01/13 08:44:11;;;;;;;3.90;3.00;;;;;;;0.75;100.00;100733.95;105554;1260;73968;-58
2024/01/13 08:46:39;;;;;;;4.40;3.30;;;;;;;0.75;100.00;100722.75;105375;1258;81992;-55
2024/01/13 08:49:08;;;;;;;3.70;2.80;;;;;;;0.74;100.00;100724.13;105539;1259;71639;-54
2024/01/13 08:51:37;;;;;;;4.40;3.40;;;;;;;0.73;100.00;100722.57;105447;1255;69128;-54
2024/01/13 08:54:06;;;;;;;5.00;3.30;;;;;;;0.73;100.00;100723.10;105491;1259;69231;-56
2024/01/13 08:56:36;;;;;;;5.30;3.50;;;;;;;0.75;100.00;100726.03;105460;1259;72489;-55
2024/01/13 08:59:08;;;;;;;4.30;2.90;;;;;;;0.75;100.00;100726.89;105512;1260;81517;-55
2024/01/13 09:01:38;;;;;;;5.50;3.40;;;;;;;0.76;100.00;100726.55;105473;1257;70982;-56
2024/01/13 09:04:09;;;;;;;4.60;3.20;;;;;;;0.76;100.00;100722.42;105496;1256;69119;-58
2024/01/13 09:06:40;;;;;;;6.70;3.60;;;;;;;0.78;100.00;100719.86;105490;1259;69234;-58
2024/01/13 09:09:10;;;;;;;;;;;;;;;0.81;100.00;100718.85;105378;1258;73553;-57
2024/01/13 09:11:41;;;;;;;4.30;2.90;;;;;;;0.84;100.00;100725.23;105471;1257;83968;-58
2024/01/13 09:14:13;;;;;;;5.20;3.10;;;;;;;0.86;100.00;100725.43;105352;1257;73742;-59
2024/01/13 09:16:46;;;;;;;4.70;3.40;;;;;;;0.87;100.00;100726.30;105420;1256;69310;-58
2024/01/13 09:19:14;;;;;;;4.40;3.20;;;;;;;0.88;100.00;100723.39;105509;1260;69237;-58
2024/01/13 09:21:43;;;;;;;4.30;3.10;;;;;;;0.91;100.00;100721.34;105382;1256;73694;-58
2024/01/13 09:24:16;;;;;;;4.10;3.00;;;;;;;0.95;100.00;100722.39;105511;1259;83271;-58
2024/01/13 09:26:47;;;;;;;3.40;2.50;;;;;;;0.97;100.00;100722.42;105496;1257;71663;-57
2024/01/13 09:29:19;;;;;;;4.00;3.20;;;;;;;1.00;100.00;100719.67;105388;1260;69253;-55
2024/01/13 09:31:50;;;;;;;3.80;2.90;;;;;;;1.02;100.00;100710.74;105271;1257;69824;-56
2024/01/13 09:34:20;;;;;;;3.30;2.70;;;;;;;1.04;100.00;100709.38;105698;1256;73757;-56
2024/01/13 09:36:50;;;;;;;4.70;3.40;;;;;;;1.05;100.00;100709.05;105430;1259;81185;-56
2024/01/13 09:39:21;;;;;;;5.20;2.80;;;;;;;1.07;100.00;100702.70;105506;1257;72029;-57
2024/01/13 09:41:54;;;;;;;4.60;3.30;;;;;;;1.10;100.00;100696.17;105327;1258;69089;-57
2024/01/13 09:44:23;;;;;;;;;;;;;;;1.13;100.00;100692.23;105560;1259;69186;-55
2024/01/13 09:46:55;;;;;;;3.70;2.70;;;;;;;1.16;100.00;100688.98;105471;1257;75615;-56
2024/01/13 09:49:30;;;;;;;3.30;2.40;;;;;;;1.18;100.00;100679.52;105501;1257;83724;-55
2024/01/13 09:52:05;;;;;;;3.20;2.60;;;;;;;1.23;100.00;100674.23;105512;1258;71944;-55
2024/01/13 09:54:35;;;;;;;3.50;2.50;;;;;;;1.26;100.00;100677.51;105531;1257;69198;-52
2024/01/13 09:57:04;;;;;;;2.80;2.20;;;;;;;1.31;100.00;100679.77;105528;1259;69180;-53
2024/01/13 09:59:33;;;;;;;3.40;1.90;;;;;;;1.32;100.00;100670.47;105449;1257;72390;-55
2024/01/13 10:02:02;;;;;;;2.80;2.20;;;;;;;1.31;100.00;100665.66;105412;1259;81364;-55
2024/01/13 10:04:37;;;;;;;3.20;2.40;;;;;;;1.32;100.00;100650.66;105460;1257;70896;-53
2024/01/13 10:07:08;;;;;;;3.20;2.10;;;;;;;1.32;100.00;100641.38;105294;1257;69051;-54
2024/01/13 10:09:40;;;;;;;2.50;2.00;;;;;;;1.31;100.00;100639.66;105686;1255;69113;-55
2024/01/13 10:12:08;;;;;;;3.70;2.30;;;;;;;1.30;100.00;100631.90;105509;1259;75906;-54
2024/01/13 10:14:44;;;;;;;4.00;2.30;;;;;;;1.32;100.00;100623.82;105457;1260;80440;-54
2024/01/13 10:17:14;;;;;;;3.00;1.90;;;;;;;1.35;100.00;100616.43;105610;1257;71016;-52
2024/01/13 10:19:43;;;;;;;3.30;1.90;;;;;;;1.37;100.00;100610.41;105318;1259;69084;-52
2024/01/13 10:22:15;;;;;;;3.60;2.30;;;;;;;1.42;100.00;100608.20;105438;1258;69231;-51
2024/01/13 10:24:44;;;;;;;3.50;2.40;;;;;;;1.45;100.00;100602.00;105518;1257;72253;-49
2024/01/13 10:27:13;;;;;;;3.80;2.40;;;;;;;1.47;100.00;100596.33;105338;1259;81616;-53
2024/01/13 10:29:45;;;;;;;2.80;2.10;;;;;;;1.51;100.00;100597.73;105450;1257;70732;-53
2024/01/13 10:32:13;;;;;;;3.30;2.30;;;;;;;1.54;100.00;100590.15;105449;1255;69147;-53
2024/01/13 10:34:49;;;;;;;3.40;1.80;;;;;;;1.58;100.00;100591.02;105558;1257;69187;-54
2024/01/13 10:37:17;;;;;;;3.10;2.20;;;;;;;1.59;100.00;100586.04;105476;1257;73166;-54
2024/01/13 10:39:46;;;;;;;5.40;2.30;;;;;;;1.58;100.00;100581.55;105539;1259;81345;-53
2024/01/13 10:42:19;;;;;;;2.80;2.00;;;;;;;1.59;100.00;100576.39;105315;1259;175200;-57
2024/01/13 10:44:55;;;;;;;3.70;2.00;;;;;;;1.60;100.00;100571.73;105312;1257;69896;-50
2024/01/13 10:47:32;;;;;;;3.30;2.20;;;;;;;1.61;100.00;100570.01;105485;1260;69189;-54
2024/01/13 10:50:01;;;;;;;3.10;2.00;;;;;;;1.62;100.00;100559.85;105416;1257;73802;-56
2024/01/13 10:52:33;;;;;;;2.50;1.80;;;;;;;1.64;100.00;100558.31;105390;1259;81506;-54
2024/01/13 10:55:03;;;;;;;4.80;1.90;;;;;;;1.67;100.00;100560.21;105269;1260;70901;-54
2024/01/13 10:57:34;;;;;;;3.80;2.40;;;;;;;1.69;100.00;100554.01;105372;1257;69907;-52
2024/01/13 11:00:04;;;;;;;3.60;2.20;;;;;;;1.72;100.00;100551.08;105392;1259;69186;-50
2024/01/13 11:02:37;;;;;;;4.10;2.00;;;;;;;1.73;100.00;100546.44;105270;1255;75040;-50
2024/01/13 11:05:06;;;;;;;3.10;2.20;;;;;;;1.74;100.00;100535.93;106380;1256;82748;-50
2024/01/13 11:07:35;;;;;;;2.90;2.20;;;;;;;1.77;100.00;100538.86;105327;1261;72171;-51
2024/01/13 11:10:08;;;;;;;3.50;2.30;;;;;;;1.76;100.00;100534.91;105362;1259;69285;-53
2024/01/13 11:12:41;;;;;;;3.10;2.10;;;;;;;1.77;100.00;100539.55;105355;1258;69221;-54
2024/01/13 11:15:21;;;;;;;3.00;2.30;;;;;;;1.80;100.00;100536.28;105352;1258;73870;-52
2024/01/13 11:17:51;;;;;;;4.00;2.60;;;;;;;1.85;100.00;100539.39;105349;1256;81600;-54
2024/01/13 11:20:20;;;;;;;3.50;2.40;;;;;;;1.81;100.00;100544.04;105318;1257;71780;-53
2024/01/13 11:22:58;;;;;;;3.40;2.40;;;;;;;1.79;100.00;100532.48;105266;1259;70034;-49